Terminal Aerodrome Forecast
Issued by NWS

Home | Current Version | Previous Version | Text Only | Print | Product List | Glossary On
Versions: 1 2 3 4 5 6 7 8 9 10 11 12 13 14 15 16 17 18 19 20 21
000
FTUS43 KDVN 292338
TAFCID
TAF
KCID 292338Z 3000/3024 23006KT P6SM FEW040
     FM300300 22006KT P6SM BKN030
     FM301000 24007KT P6SM OVC015
     FM301600 26012G20KT 5SM BR VCSH SCT009 OVC015=

USA.gov is the U.S. government's official web portal to all federal, state and local government web resources and services.